Terminal Aerodrome Forecast
Issued by NWS

Home | Current Version | Previous Version | Text Only | Print | Product List | Glossary On
Versions: 1 2 3 4 5 6 7 8 9 10 11 12 13 14 15 16 17 18 19 20 21 22 23 24 25 26 27 28
000
FTUS45 KBOI 011141
TAFMYL
TAF
KMYL 011141Z 0112/0212 VRB03KT P6SM OVC080
     FM011800 17005KT P6SM VCSH BKN030 OVC050
     FM012100 17005KT 4SM -RASN BR OVC020
     FM012300 VRB05KT 1SM -SN BR SCT005 OVC010=

USA.gov is the U.S. government's official web portal to all federal, state and local government web resources and services.